RCSS/TSA METAR and TAF weather

Enter ICAO airport designator
Station Type Date Time Source
RCSS METAR 2019/10/23 20:00 UTC NOAA

RCSS 232000Z 09006KT 9999 FEW018 SCT050 BKN120 22/17 Q1014 NOSIG RMK A2996


Station Type Date Time Source
RCSS Decoded METAR 2019/10/23 20:00 UTC NOAA

Sungshan / Taipei, Taiwan (RCSS) 25-04N 121-33E
Oct 23, 2019 - 04:00 PM EDT / 2019.10.23 2000 UTC
Wind: from the E (090 degrees) at 7 MPH (6 KT):0
Visibility: greater than 7 mile(s):0
Sky conditions: mostly cloudy
Temperature: 71 F (22 C)
Dew Point: 62 F (17 C)
Relative Humidity: 73%
Pressure (altimeter): 29.94 in. Hg (1014 hPa)
ob: RCSS 232000Z 09006KT 9999 FEW018 SCT050 BKN120 22/17 Q1014 NOSIG RMK A2996
cycle: 20

Station Type Date Time Source
RCSS TAF 2019/10/23 18:03 UTC NOAA

TAF RCSS 231700Z 2318/2418 10006KT 9999 FEW015 SCT035 BKN045
BECMG 2400/2402 08012KT
BECMG 2410/2412 09005KT

Example: see airport list